createdAt,value
2022-08-26T00:02:07.253Z,69.83
2022-08-26T00:04:35.464Z,73.72
2022-08-26T00:07:03.454Z,72.39
2022-08-26T00:09:37.334Z,72.36
2022-08-26T00:12:07.561Z,76.25
2022-08-26T00:14:38.295Z,78.72
2022-08-26T00:17:06.436Z,75.24
2022-08-26T00:19:36.708Z,77.11
2022-08-26T00:22:04.733Z,78.87
2022-08-26T00:24:32.796Z,79.24
2022-08-26T00:27:00.763Z,79.28
2022-08-26T00:29:29.180Z,79.23
2022-08-26T00:32:02.706Z,78.94
2022-08-26T00:34:32.175Z,78.43
2022-08-26T00:37:00.310Z,81.18
2022-08-26T00:39:28.315Z,82.19
2022-08-26T00:41:56.354Z,81.83
2022-08-26T00:44:24.756Z,83.81
2022-08-26T00:46:54.518Z,84.93
2022-08-26T00:49:25.916Z,84.42
2022-08-26T00:51:55.543Z,82.60
2022-08-26T00:54:26.891Z,82.27
2022-08-26T00:56:57.706Z,80.91
2022-08-26T00:59:28.121Z,79.30
2022-08-26T01:01:56.161Z,79.27
2022-08-26T01:04:26.103Z,78.24
2022-08-26T01:06:55.641Z,81.58
2022-08-26T01:09:23.814Z,82.63
2022-08-26T01:11:53.884Z,84.80
2022-08-26T01:14:22.323Z,85.05
2022-08-26T01:16:50.538Z,84.59
2022-08-26T01:19:20.672Z,87.27
2022-08-26T01:21:53.303Z,89.47
2022-08-26T01:24:23.669Z,88.12
2022-08-26T01:26:58.651Z,91.28
2022-08-26T01:29:27.604Z,89.23
2022-08-26T01:31:56.684Z,90.81
2022-08-26T01:34:25.708Z,92.10
2022-08-26T01:36:58.714Z,93.19
2022-08-26T01:39:28.653Z,93.19
2022-08-26T01:41:57.055Z,95.25
2022-08-26T01:44:28.199Z,91.76
2022-08-26T01:46:56.409Z,91.28
2022-08-26T01:49:24.496Z,90.95
2022-08-26T01:51:55.137Z,88.05
2022-08-26T01:54:23.149Z,91.61
2022-08-26T01:56:52.822Z,91.14
2022-08-26T01:59:21.262Z,92.36
2022-08-26T02:01:49.881Z,91.66
2022-08-26T02:04:23.177Z,95.46
2022-08-26T02:06:52.442Z,94.72
2022-08-26T02:09:20.561Z,95.83
2022-08-26T02:11:48.707Z,95.24
2022-08-26T02:14:21.371Z,98.14
2022-08-26T02:16:50.507Z,91.71
2022-08-26T02:19:21.233Z,93.94
2022-08-26T02:21:52.162Z,88.33
2022-08-26T02:24:21.316Z,89.64
2022-08-26T02:26:49.296Z,90.30
2022-08-26T02:29:21.333Z,87.72
2022-08-26T02:31:49.596Z,88.25
2022-08-26T02:34:21.843Z,87.24
2022-08-26T02:36:50.853Z,87.00
2022-08-26T02:39:22.269Z,88.67
2022-08-26T02:41:50.527Z,85.29
2022-08-26T02:44:19.952Z,89.67
2022-08-26T02:46:48.180Z,87.30
2022-08-26T02:49:17.283Z,85.34
2022-08-26T02:51:45.366Z,87.26
2022-08-26T02:54:13.689Z,82.97
2022-08-26T02:56:41.658Z,83.89
2022-08-26T02:59:10.194Z,84.29
2022-08-26T03:01:40.527Z,84.84
2022-08-26T03:04:09.677Z,86.50
2022-08-26T03:06:38.316Z,85.45
2022-08-26T03:09:06.585Z,85.94
2022-08-26T03:11:35.803Z,86.47
2022-08-26T03:14:03.929Z,86.25
2022-08-26T03:16:33.133Z,86.80
2022-08-26T03:19:03.134Z,87.21
2022-08-26T03:21:31.305Z,90.00
2022-08-26T03:23:59.724Z,90.50
2022-08-26T03:26:28.481Z,88.36
2022-08-26T03:29:14.907Z,86.96
2022-08-26T03:31:43.088Z,89.00
2022-08-26T03:34:13.002Z,90.05
2022-08-26T03:36:41.683Z,88.73
2022-08-26T03:39:09.767Z,92.06
2022-08-26T03:41:37.864Z,90.40
2022-08-26T03:44:05.933Z,91.05
2022-08-26T03:46:34.464Z,91.12
2022-08-26T03:49:02.854Z,91.51
2022-08-26T03:51:32.368Z,90.36
2022-08-26T03:54:03.101Z,89.34
2022-08-26T03:56:31.110Z,91.37
2022-08-26T03:59:00.606Z,91.06
2022-08-26T04:01:28.852Z,91.20
2022-08-26T04:04:00.730Z,87.23
2022-08-26T04:06:29.862Z,88.27
2022-08-26T04:09:00.154Z,86.77
2022-08-26T04:11:32.150Z,85.59
2022-08-26T04:14:03.798Z,87.57
2022-08-26T04:16:32.043Z,85.50
2022-08-26T04:19:00.171Z,85.16
2022-08-26T04:21:29.446Z,86.24
2022-08-26T04:23:58.209Z,87.08
2022-08-26T04:26:27.763Z,87.06
2022-08-26T04:28:56.013Z,84.49
2022-08-26T04:31:26.377Z,85.28
2022-08-26T04:33:58.913Z,83.27
2022-08-26T04:36:26.912Z,84.82
2022-08-26T04:38:55.453Z,83.82
2022-08-26T04:41:23.865Z,84.52
2022-08-26T04:43:54.244Z,83.95
2022-08-26T04:46:24.543Z,83.02
2022-08-26T04:48:52.850Z,82.71
2022-08-26T04:51:21.011Z,84.71
2022-08-26T04:53:49.037Z,81.65
2022-08-26T04:56:18.359Z,81.12
2022-08-26T04:58:46.336Z,80.16
2022-08-26T05:01:15.753Z,79.16
2022-08-26T05:03:44.874Z,79.48
2022-08-26T05:06:13.383Z,79.88
2022-08-26T05:08:41.502Z,78.59
2022-08-26T05:11:09.667Z,81.13
2022-08-26T05:13:39.194Z,79.45
2022-08-26T05:16:08.811Z,78.98
2022-08-26T05:18:41.085Z,80.14
2022-08-26T05:21:17.573Z,80.41
2022-08-26T05:23:45.642Z,80.63
2022-08-26T05:26:13.656Z,79.53
2022-08-26T05:28:44.626Z,80.91
2022-08-26T05:31:14.421Z,77.97
2022-08-26T05:33:46.777Z,80.10
2022-08-26T05:36:16.143Z,79.35
2022-08-26T05:38:44.286Z,80.49
2022-08-26T05:41:16.165Z,79.30
2022-08-26T05:43:44.768Z,79.10
2022-08-26T05:46:12.775Z,82.24
2022-08-26T05:48:44.427Z,83.85
2022-08-26T05:51:13.998Z,90.84
2022-08-26T05:53:43.963Z,86.58
2022-08-26T05:56:24.851Z,87.40
2022-08-26T05:58:53.067Z,86.05
2022-08-26T06:01:22.424Z,86.95
2022-08-26T06:03:53.092Z,81.41
2022-08-26T06:06:27.676Z,77.64
2022-08-26T06:08:56.261Z,74.39
2022-08-26T06:11:25.676Z,72.72
2022-08-26T06:13:53.731Z,71.62
2022-08-26T06:16:23.563Z,70.61
2022-08-26T06:18:52.527Z,71.83
2022-08-26T06:21:24.572Z,70.74
2022-08-26T06:24:11.132Z,70.29
2022-08-26T06:26:40.048Z,65.32
2022-08-26T06:29:10.955Z,65.34
2022-08-26T06:31:43.496Z,63.94
2022-08-26T06:34:11.822Z,64.07
2022-08-26T06:36:42.483Z,64.11
2022-08-26T06:39:12.887Z,62.05
2022-08-26T06:41:45.070Z,61.26
2022-08-26T06:44:14.962Z,62.54
2022-08-26T06:46:44.194Z,63.19
2022-08-26T06:49:12.505Z,64.80
2022-08-26T06:51:42.377Z,66.03
2022-08-26T06:54:10.530Z,64.77
2022-08-26T06:56:40.117Z,64.48
2022-08-26T06:59:08.511Z,64.41
2022-08-26T07:01:38.821Z,62.93
2022-08-26T07:04:11.316Z,64.97
2022-08-26T07:06:41.670Z,61.87
2022-08-26T07:09:11.334Z,62.96
2022-08-26T07:11:39.720Z,60.55
2022-08-26T07:14:07.849Z,63.76
2022-08-26T07:16:35.943Z,61.83
2022-08-26T07:19:10.821Z,60.72
2022-08-26T07:21:42.350Z,62.53
2022-08-26T07:24:11.089Z,59.99
2022-08-26T07:26:42.973Z,60.11
2022-08-26T07:29:11.650Z,58.93
2022-08-26T07:31:42.414Z,59.21
2022-08-26T07:34:11.062Z,59.16
2022-08-26T07:36:39.073Z,59.70
2022-08-26T07:39:08.474Z,54.79
2022-08-26T07:41:37.083Z,53.31
2022-08-26T07:44:06.336Z,52.33
2022-08-26T07:46:36.763Z,52.92
2022-08-26T07:49:04.860Z,49.24
2022-08-26T07:51:33.306Z,47.72
2022-08-26T07:54:01.345Z,48.46
2022-08-26T07:56:30.707Z,47.38
2022-08-26T07:58:59.376Z,45.33
2022-08-26T08:01:29.675Z,44.25
2022-08-26T08:03:59.011Z,43.94
2022-08-26T08:06:28.179Z,44.10
2022-08-26T08:08:56.388Z,45.52
2022-08-26T08:11:24.540Z,45.65
2022-08-26T08:13:56.330Z,45.20
2022-08-26T08:16:25.996Z,44.45
2022-08-26T08:18:54.567Z,44.45
2022-08-26T08:21:24.978Z,44.53
2022-08-26T08:23:53.369Z,43.02
2022-08-26T08:26:21.699Z,42.84
2022-08-26T08:28:49.702Z,41.11
2022-08-26T08:31:52.134Z,42.25
2022-08-26T08:34:10.836Z,42.28
2022-08-26T08:36:38.824Z,40.28
2022-08-26T08:39:07.130Z,41.56
2022-08-26T08:41:45.214Z,40.80
2022-08-26T08:44:15.541Z,39.40
2022-08-26T08:46:45.133Z,40.87
2022-08-26T08:49:13.134Z,39.66
2022-08-26T08:51:45.887Z,40.58
2022-08-26T08:54:14.508Z,40.26
2022-08-26T08:56:43.937Z,39.27
2022-08-26T08:59:15.254Z,38.35
2022-08-26T09:01:54.565Z,38.68
2022-08-26T09:04:57.489Z,37.83
2022-08-26T09:07:27.919Z,36.70
2022-08-26T09:09:57.370Z,36.36
2022-08-26T09:12:29.401Z,35.81
2022-08-26T09:15:01.465Z,38.10
2022-08-26T09:17:37.218Z,36.79
2022-08-26T09:20:11.629Z,36.20
2022-08-26T09:22:44.151Z,35.72
2022-08-26T09:25:14.379Z,35.87
2022-08-26T09:27:44.448Z,36.80
2022-08-26T09:30:14.593Z,33.31
2022-08-26T09:32:55.804Z,32.82
2022-08-26T09:35:26.391Z,33.11
2022-08-26T09:37:54.405Z,34.55
2022-08-26T09:40:27.143Z,34.21
2022-08-26T09:43:13.641Z,33.92
2022-08-26T09:45:50.097Z,34.23
2022-08-26T09:48:30.643Z,34.96
2022-08-26T09:51:00.184Z,34.45
2022-08-26T09:53:30.694Z,35.52
2022-08-26T09:56:17.356Z,33.81
2022-08-26T09:58:47.254Z,32.59
2022-08-26T10:01:33.252Z,34.45
2022-08-26T10:04:11.014Z,32.08
2022-08-26T10:06:41.571Z,33.86
2022-08-26T10:09:10.876Z,33.67
2022-08-26T10:11:40.899Z,33.64
2022-08-26T10:14:11.446Z,33.86
2022-08-26T10:16:44.223Z,34.09
2022-08-26T10:19:14.513Z,34.12
2022-08-26T10:21:47.013Z,35.14
2022-08-26T10:24:21.946Z,34.25
2022-08-26T10:26:53.710Z,35.23
2022-08-26T10:29:24.413Z,33.44
2022-08-26T10:31:53.412Z,33.94
2022-08-26T10:34:28.207Z,32.94
2022-08-26T10:37:13.874Z,32.92
2022-08-26T10:39:49.166Z,31.83
2022-08-26T10:42:23.437Z,30.59
2022-08-26T10:44:52.567Z,31.99
2022-08-26T10:47:22.186Z,31.25
2022-08-26T10:49:51.910Z,31.37
2022-08-26T10:52:21.790Z,30.09
2022-08-26T10:54:55.952Z,31.26
2022-08-26T10:57:26.280Z,30.96
2022-08-26T10:59:58.940Z,30.36
2022-08-26T11:02:30.188Z,30.41
2022-08-26T11:05:03.050Z,29.22
2022-08-26T11:07:42.426Z,29.23
2022-08-26T11:10:14.058Z,28.78
2022-08-26T11:12:51.622Z,29.74
2022-08-26T11:15:58.639Z,32.05
2022-08-26T11:18:56.126Z,33.35
2022-08-26T11:21:51.050Z,31.16
2022-08-26T11:25:11.582Z,30.72
2022-08-26T11:27:58.115Z,30.94
2022-08-26T11:30:57.473Z,29.40
2022-08-26T11:33:59.689Z,29.18
2022-08-26T11:36:44.142Z,29.47
2022-08-26T11:39:19.197Z,29.96
2022-08-26T11:41:48.093Z,28.23
2022-08-26T11:44:21.777Z,28.87
2022-08-26T11:46:57.526Z,27.38
2022-08-26T11:49:25.840Z,27.74
2022-08-26T11:51:53.846Z,27.70
2022-08-26T11:54:30.477Z,27.98
2022-08-26T11:57:07.772Z,28.98
2022-08-26T11:59:40.466Z,28.35
2022-08-26T12:02:13.605Z,28.62
2022-08-26T12:04:42.769Z,28.88
2022-08-26T12:07:10.845Z,28.53
2022-08-26T12:09:52.574Z,28.73
2022-08-26T12:12:24.250Z,29.43
2022-08-26T12:15:10.228Z,30.27
2022-08-26T12:17:38.752Z,29.78
2022-08-26T12:20:07.564Z,29.29
2022-08-26T12:22:36.025Z,28.93
2022-08-26T12:25:08.121Z,30.85
2022-08-26T12:27:37.022Z,29.24
2022-08-26T12:30:06.899Z,30.54
2022-08-26T12:32:36.602Z,29.78
2022-08-26T12:37:35.837Z,30.40
2022-08-26T12:40:28.001Z,32.22
2022-08-26T12:42:56.671Z,30.97
2022-08-26T12:45:28.130Z,30.72
2022-08-26T12:47:56.737Z,29.74
2022-08-26T12:50:26.256Z,31.04
2022-08-26T12:52:57.540Z,30.96
2022-08-26T12:55:29.021Z,30.04
2022-08-26T12:58:11.794Z,31.57
2022-08-26T13:00:40.928Z,30.97
2022-08-26T13:03:43.409Z,30.74
2022-08-26T13:06:16.040Z,32.23
2022-08-26T13:08:46.773Z,32.14
2022-08-26T13:11:25.485Z,32.05
2022-08-26T13:13:54.361Z,32.20
2022-08-26T13:16:22.715Z,32.73
2022-08-26T13:18:53.113Z,34.55
2022-08-26T13:21:22.726Z,33.54
2022-08-26T13:23:50.904Z,34.22
2022-08-26T13:26:20.345Z,34.10
2022-08-26T13:29:01.177Z,34.23
2022-08-26T13:31:30.947Z,34.56
2022-08-26T13:33:59.027Z,35.29
2022-08-26T13:36:27.053Z,35.42
2022-08-26T13:38:55.313Z,34.77
2022-08-26T13:41:29.159Z,34.29
2022-08-26T13:43:58.880Z,35.04
2022-08-26T13:46:27.918Z,34.69
2022-08-26T13:48:56.081Z,34.33
2022-08-26T13:51:24.096Z,33.32
2022-08-26T13:53:52.199Z,34.13
2022-08-26T13:56:20.189Z,34.51
2022-08-26T13:58:49.669Z,35.83
2022-08-26T14:01:18.005Z,34.79
2022-08-26T14:03:46.344Z,33.12
2022-08-26T14:06:14.383Z,34.07
2022-08-26T14:08:42.607Z,32.75
2022-08-26T14:11:10.741Z,35.08
2022-08-26T14:13:39.303Z,32.81
2022-08-26T14:16:11.406Z,33.89
2022-08-26T14:18:44.317Z,34.00
2022-08-26T14:21:14.351Z,34.36
2022-08-26T14:23:42.506Z,35.38
2022-08-26T14:26:14.380Z,35.90
2022-08-26T14:28:56.692Z,37.85
2022-08-26T14:31:27.235Z,36.82
2022-08-26T14:33:55.531Z,38.76
2022-08-26T14:36:29.371Z,40.05
2022-08-26T14:38:58.318Z,39.44
2022-08-26T14:41:27.128Z,40.38
2022-08-26T14:43:58.003Z,39.13
2022-08-26T14:46:28.832Z,40.05
2022-08-26T14:49:01.051Z,38.15
2022-08-26T14:51:30.204Z,39.61
2022-08-26T14:54:12.218Z,40.07
2022-08-26T14:56:43.075Z,42.71
2022-08-26T14:59:11.558Z,43.04
2022-08-26T15:01:41.077Z,44.18
2022-08-26T15:04:09.233Z,44.31
2022-08-26T15:06:37.308Z,43.31
2022-08-26T15:09:05.604Z,43.21
2022-08-26T15:11:33.614Z,43.56
2022-08-26T15:14:01.642Z,41.91
2022-08-26T15:16:29.864Z,40.41
2022-08-26T15:18:59.385Z,42.78
2022-08-26T15:21:27.396Z,41.69
2022-08-26T15:23:55.407Z,41.99
2022-08-26T15:26:23.651Z,37.26
2022-08-26T15:28:51.703Z,39.24
2022-08-26T15:31:20.158Z,41.82
2022-08-26T15:33:49.383Z,39.24
2022-08-26T15:36:18.787Z,38.96
2022-08-26T15:38:46.956Z,41.93
2022-08-26T15:41:15.188Z,41.18
2022-08-26T15:43:43.263Z,43.14
2022-08-26T15:46:11.911Z,43.79
2022-08-26T15:48:40.019Z,43.50
2022-08-26T15:51:08.167Z,44.94
2022-08-26T15:53:37.549Z,45.90
2022-08-26T15:56:05.726Z,45.79
2022-08-26T15:58:33.732Z,44.70
2022-08-26T16:01:04.397Z,47.31
2022-08-26T16:03:32.398Z,47.34
2022-08-26T16:06:00.467Z,46.09
2022-08-26T16:08:28.550Z,48.62
2022-08-26T16:11:04.013Z,47.00
2022-08-26T16:13:39.783Z,47.15
2022-08-26T16:16:08.651Z,48.45
2022-08-26T16:18:36.687Z,49.25
2022-08-26T16:21:13.191Z,50.48
2022-08-26T16:23:43.271Z,52.15
2022-08-26T16:26:15.610Z,51.56
2022-08-26T16:28:43.815Z,53.27
2022-08-26T16:31:13.436Z,52.92
2022-08-26T16:33:41.686Z,56.54
2022-08-26T16:36:10.060Z,57.74
2022-08-26T16:38:38.534Z,59.30
2022-08-26T16:41:06.723Z,59.91
2022-08-26T16:43:36.123Z,57.57
2022-08-26T16:46:06.676Z,61.97
2022-08-26T16:48:34.854Z,64.36
2022-08-26T16:51:02.862Z,60.44
2022-08-26T16:53:31.490Z,61.49
2022-08-26T16:55:59.481Z,61.88
2022-08-26T16:58:27.519Z,67.14
2022-08-26T17:00:57.313Z,65.82
2022-08-26T17:03:25.284Z,66.34
2022-08-26T17:05:53.265Z,68.27
2022-08-26T17:08:28.460Z,72.08
2022-08-26T17:10:57.267Z,71.50
2022-08-26T17:13:35.496Z,71.63
2022-08-26T17:16:07.128Z,73.78
2022-08-26T17:18:35.305Z,72.57
2022-08-26T17:21:03.462Z,74.80
2022-08-26T17:23:31.558Z,75.74
2022-08-26T17:25:59.586Z,76.13
2022-08-26T17:28:27.683Z,75.83
2022-08-26T17:30:57.159Z,71.32
2022-08-26T17:33:26.606Z,67.66
2022-08-26T17:35:54.890Z,68.07
2022-08-26T17:38:22.932Z,71.35
2022-08-26T17:40:51.215Z,72.22
2022-08-26T17:43:19.304Z,74.29
2022-08-26T17:45:47.412Z,73.33
2022-08-26T17:48:15.452Z,74.01
2022-08-26T17:50:49.452Z,75.53
2022-08-26T17:53:18.912Z,75.95
2022-08-26T17:55:47.552Z,77.88
2022-08-26T17:58:16.193Z,75.91
2022-08-26T18:00:44.721Z,76.24
2022-08-26T18:03:12.747Z,75.96
2022-08-26T18:05:40.826Z,75.13
2022-08-26T18:08:10.311Z,75.78
2022-08-26T18:10:38.311Z,78.98
2022-08-26T18:13:06.441Z,79.92
2022-08-26T18:15:34.468Z,79.86
2022-08-26T18:18:02.552Z,78.97
2022-08-26T18:20:30.575Z,79.52
2022-08-26T18:22:58.673Z,78.55
2022-08-26T18:25:28.197Z,78.61
2022-08-26T18:27:56.272Z,78.58
2022-08-26T18:30:24.393Z,76.26
2022-08-26T18:32:52.534Z,80.73
2022-08-26T18:35:21.370Z,79.71
2022-08-26T18:37:49.564Z,79.51
2022-08-26T18:40:17.715Z,78.41
2022-08-26T18:42:47.216Z,79.45
2022-08-26T18:45:22.032Z,79.67
2022-08-26T18:47:50.052Z,80.73
2022-08-26T18:50:18.037Z,76.51
2022-08-26T18:52:46.017Z,77.58
2022-08-26T18:55:14.090Z,78.91
2022-08-26T18:57:42.060Z,79.52
2022-08-26T19:00:12.647Z,79.36
2022-08-26T19:02:40.756Z,79.99
2022-08-26T19:05:10.369Z,81.75
2022-08-26T19:07:39.682Z,80.34
2022-08-26T19:10:08.730Z,79.09
2022-08-26T19:12:36.763Z,78.99
2022-08-26T19:15:05.354Z,77.77
2022-08-26T19:17:34.727Z,77.42
2022-08-26T19:20:03.275Z,78.10
2022-08-26T19:22:31.350Z,76.86
2022-08-26T19:24:59.354Z,77.45
2022-08-26T19:27:27.861Z,75.76
2022-08-26T19:29:57.428Z,77.00
2022-08-26T19:32:25.410Z,77.40
2022-08-26T19:34:54.785Z,76.07
2022-08-26T19:37:23.227Z,78.10
2022-08-26T19:39:51.446Z,75.75
2022-08-26T19:42:19.441Z,78.31
2022-08-26T19:45:04.761Z,77.25
2022-08-26T19:47:32.797Z,77.26
2022-08-26T19:50:02.192Z,77.28
2022-08-26T19:52:31.388Z,79.38
2022-08-26T19:54:59.447Z,80.09
2022-08-26T19:57:27.471Z,81.11
2022-08-26T19:59:55.425Z,81.07
2022-08-26T20:02:23.525Z,81.67
2022-08-26T20:04:51.526Z,80.90
2022-08-26T20:07:20.926Z,81.59
2022-08-26T20:09:49.190Z,80.73
2022-08-26T20:12:17.501Z,80.97
2022-08-26T20:14:45.727Z,84.96
2022-08-26T20:17:14.461Z,86.30
2022-08-26T20:19:59.923Z,83.85
2022-08-26T20:22:29.344Z,83.61
2022-08-26T20:24:57.483Z,82.86
2022-08-26T20:27:38.063Z,82.70
2022-08-26T20:30:07.615Z,83.10
2022-08-26T20:32:35.764Z,84.45
2022-08-26T20:35:03.986Z,82.47
2022-08-26T20:37:33.408Z,82.73
2022-08-26T20:40:01.486Z,82.83
2022-08-26T20:42:30.096Z,83.16
2022-08-26T20:44:58.069Z,82.99
2022-08-26T20:47:26.047Z,82.96
2022-08-26T20:49:57.263Z,83.06
2022-08-26T20:52:25.344Z,82.28
2022-08-26T20:54:54.716Z,83.32
2022-08-26T20:57:22.824Z,82.76
2022-08-26T20:59:50.887Z,82.38
2022-08-26T21:02:18.870Z,81.31
2022-08-26T21:04:46.960Z,82.67
2022-08-26T21:07:15.015Z,83.06
2022-08-26T21:09:45.729Z,83.27
2022-08-26T21:12:15.121Z,81.69
2022-08-26T21:14:45.668Z,81.43
2022-08-26T21:17:16.991Z,82.59
2022-08-26T21:19:45.001Z,80.27
2022-08-26T21:22:13.010Z,80.76
2022-08-26T21:24:41.041Z,80.86
2022-08-26T21:27:09.032Z,81.45
2022-08-26T21:29:38.365Z,81.89
2022-08-26T21:32:06.719Z,80.89
2022-08-26T21:34:34.711Z,82.56
2022-08-26T21:37:02.802Z,84.32
2022-08-26T21:39:37.023Z,84.79
2022-08-26T21:42:07.972Z,85.37
2022-08-26T21:44:35.976Z,85.81
2022-08-26T21:47:05.621Z,86.75
2022-08-26T21:49:33.637Z,85.50
2022-08-26T21:52:04.575Z,87.67
2022-08-26T21:54:32.607Z,87.82
2022-08-26T21:57:00.609Z,86.26
2022-08-26T21:59:28.699Z,85.66
2022-08-26T22:01:56.941Z,86.30
2022-08-26T22:04:26.400Z,82.49
2022-08-26T22:06:55.646Z,85.45
2022-08-26T22:09:24.630Z,84.11
2022-08-26T22:11:52.687Z,81.75
2022-08-26T22:14:22.012Z,78.68
2022-08-26T22:16:50.309Z,77.89
2022-08-26T22:19:20.073Z,75.94
2022-08-26T22:21:50.875Z,76.54
2022-08-26T22:24:18.996Z,76.01
2022-08-26T22:26:47.056Z,75.43
2022-08-26T22:29:15.266Z,76.36
2022-08-26T22:31:43.335Z,76.00
2022-08-26T22:34:12.643Z,76.63
2022-08-26T22:36:44.044Z,75.40
2022-08-26T22:39:14.000Z,76.23
2022-08-26T22:41:43.129Z,77.73
2022-08-26T22:44:11.738Z,76.89
2022-08-26T22:46:40.007Z,77.69
2022-08-26T22:49:09.630Z,79.37
2022-08-26T22:51:37.731Z,78.85
2022-08-26T22:54:06.009Z,78.90
2022-08-26T22:56:35.561Z,79.57
2022-08-26T22:59:04.212Z,78.19
2022-08-26T23:01:32.353Z,78.93
2022-08-26T23:04:00.410Z,78.94
2022-08-26T23:06:28.424Z,80.96
2022-08-26T23:08:56.487Z,80.86
2022-08-26T23:11:24.521Z,82.50
2022-08-26T23:13:53.907Z,82.30
2022-08-26T23:16:22.332Z,81.82
2022-08-26T23:18:50.377Z,81.50
2022-08-26T23:21:18.441Z,81.49
2022-08-26T23:23:46.424Z,82.96
2022-08-26T23:26:17.499Z,82.44
2022-08-26T23:28:45.804Z,83.50
2022-08-26T23:31:15.487Z,82.95
2022-08-26T23:34:00.998Z,83.66
2022-08-26T23:36:31.122Z,84.74
2022-08-26T23:39:02.975Z,85.32
2022-08-26T23:41:31.055Z,85.32
2022-08-26T23:44:03.235Z,85.31
2022-08-26T23:46:34.281Z,86.36
2022-08-26T23:49:02.314Z,85.24
2022-08-26T23:51:47.416Z,87.72
2022-08-26T23:54:16.446Z,87.86
2022-08-26T23:56:44.965Z,87.44
2022-08-26T23:59:13.028Z,86.58
